Time;durP1;ratioP1;P1;durP2;ratioP2;P2;SDS_P1;SDS_P2;PMS_P1;PMS_P2;Temp;Humidity;BMP_temperature;BMP_pressure;BME280_temperature;BME280_humidity;BME280_pressure;Samples;Min_cycle;Max_cycle;Signal;HPM_P1;HPM_P2
2023/01/06 00:00:02;;;;;;;2.40;1.13;;;;;;;;;;5073176;28;20305;-58
2023/01/06 00:02:29;;;;;;;2.30;1.20;;;;;;;;;;5087234;28;20246;-58
2023/01/06 00:04:55;;;;;;;7.10;1.67;;;;;;;;;;5089274;28;20231;-57
2023/01/06 00:07:21;;;;;;;1.43;0.93;;;;;;;;;;5090138;28;20226;-61
2023/01/06 00:09:48;;;;;;;2.80;1.50;;;;;;;;;;5092486;28;20911;-57
2023/01/06 00:12:16;;;;;;;3.83;1.37;;;;;;;;;;5098463;28;20266;-57
2023/01/06 00:14:43;;;;;;;3.73;2.00;;;;;;;;;;5091261;28;20261;-58
2023/01/06 00:17:09;;;;;;;1.60;1.33;;;;;;;;;;5090185;28;20265;-57
2023/01/06 00:19:36;;;;;;;2.77;1.20;;;;;;;;;;5075173;28;20309;-57
2023/01/06 00:22:03;;;;;;;3.97;1.77;;;;;;;;;;5087883;28;20287;-57
2023/01/06 00:24:29;;;;;;;2.63;1.70;;;;;;;;;;5088703;28;20265;-59
2023/01/06 00:26:57;;;;;;;2.60;1.77;;;;;;;;;;5082532;28;20223;-57
2023/01/06 00:29:25;;;;;;;4.90;1.67;;;;;;;;;;5080174;28;20308;-58
2023/01/06 00:31:51;;;;;;;6.90;1.97;;;;;;;;;;5088244;28;21064;-57
2023/01/06 00:34:18;;;;;;;2.03;1.70;;;;;;;;;;5084238;28;20261;-56
2023/01/06 00:36:44;;;;;;;3.10;1.70;;;;;;;;;;5085086;28;20243;-57
2023/01/06 00:39:11;;;;;;;4.10;1.87;;;;;;;;;;5089557;28;20256;-62
2023/01/06 00:44:22;;;;;;;4.43;2.13;;;;;;;;;;5087695;28;20592;-57
2023/01/06 00:46:49;;;;;;;3.90;1.63;;;;;;;;;;5083930;28;20318;-56
2023/01/06 00:49:16;;;;;;;4.63;1.77;;;;;;;;;;5080222;28;20230;-58
2023/01/06 00:51:42;;;;;;;4.73;1.67;;;;;;;;;;5086242;28;20249;-57
2023/01/06 00:54:10;;;;;;;3.53;1.53;;;;;;;;;;5075899;28;20293;-57
2023/01/06 00:56:37;;;;;;;2.50;2.10;;;;;;;;;;5078325;28;20313;-57
2023/01/06 00:59:04;;;;;;;3.20;1.90;;;;;;;;;;5087908;28;20762;-57
2023/01/06 01:01:30;;;;;;;2.17;1.87;;;;;;;;;;5086932;28;20239;-57
2023/01/06 01:03:58;;;;;;;3.40;1.80;;;;;;;;;;5076146;28;20334;-58
2023/01/06 01:06:24;;;;;;;5.30;2.03;;;;;;;;;;5083060;28;20234;-57
2023/01/06 01:08:52;;;;;;;1.90;1.47;;;;;;;;;;5084384;28;20234;-56
2023/01/06 01:13:59;;;;;;;3.80;1.93;;;;;;;;;;5083247;28;20689;-58
2023/01/06 01:16:25;;;;;;;4.70;2.07;;;;;;;;;;5080964;28;20713;-56
2023/01/06 01:18:52;;;;;;;4.17;1.80;;;;;;;;;;5082753;28;20392;-58
2023/01/06 01:21:20;;;;;;;3.73;1.80;;;;;;;;;;5082259;28;20238;-56
2023/01/06 01:23:46;;;;;;;4.50;2.23;;;;;;;;;;5070167;28;20235;-57
2023/01/06 01:26:13;;;;;;;5.40;1.90;;;;;;;;;;5078183;28;20229;-56
2023/01/06 01:28:39;;;;;;;4.53;1.90;;;;;;;;;;5065551;28;20245;-58
2023/01/06 01:31:06;;;;;;;3.97;1.53;;;;;;;;;;5062326;28;20245;-56
2023/01/06 01:33:32;;;;;;;2.67;1.60;;;;;;;;;;5074642;28;20255;-57
2023/01/06 01:36:05;;;;;;;5.63;1.97;;;;;;;;;;5075674;28;20238;-57
2023/01/06 01:38:33;;;;;;;4.03;1.40;;;;;;;;;;5078339;28;20235;-59
2023/01/06 01:41:00;;;;;;;5.33;2.43;;;;;;;;;;5075412;28;20236;-58
2023/01/06 01:43:42;;;;;;;2.87;2.43;;;;;;;;;;5069927;28;20744;-57
2023/01/06 01:46:08;;;;;;;3.37;1.50;;;;;;;;;;5080695;28;20231;-58
2023/01/06 01:48:35;;;;;;;2.13;1.47;;;;;;;;;;5075832;28;20231;-57
2023/01/06 01:51:04;;;;;;;7.50;1.63;;;;;;;;;;5084342;28;20234;-57
2023/01/06 01:53:42;;;;;;;2.30;1.60;;;;;;;;;;5073844;28;20317;-57
2023/01/06 01:56:12;;;;;;;1.97;1.40;;;;;;;;;;5067096;28;20344;-57
2023/01/06 01:58:42;;;;;;;2.70;1.50;;;;;;;;;;5076009;28;20249;-57
2023/01/06 02:01:10;;;;;;;3.10;1.63;;;;;;;;;;5078773;28;20778;-57
2023/01/06 02:03:37;;;;;;;3.73;1.70;;;;;;;;;;5084517;28;20226;-57
2023/01/06 02:06:05;;;;;;;3.60;1.63;;;;;;;;;;5081158;28;20227;-57
2023/01/06 02:08:35;;;;;;;4.63;1.60;;;;;;;;;;5078830;28;20239;-57
2023/01/06 02:11:01;;;;;;;8.00;2.20;;;;;;;;;;5082410;28;20728;-57
2023/01/06 02:13:30;;;;;;;2.63;1.47;;;;;;;;;;5079277;28;20234;-56
2023/01/06 02:16:00;;;;;;;4.57;2.33;;;;;;;;;;5077560;28;20252;-57
2023/01/06 02:18:36;;;;;;;3.03;1.70;;;;;;;;;;5069140;28;20239;-57
2023/01/06 02:21:12;;;;;;;2.10;1.27;;;;;;;;;;5084432;28;20229;-57
2023/01/06 02:24:02;;;;;;;4.97;1.50;;;;;;;;;;5076009;28;20231;-58
2023/01/06 02:26:46;;;;;;;2.63;1.67;;;;;;;;;;5072950;28;20257;-57
2023/01/06 02:29:33;;;;;;;13.13;2.27;;;;;;;;;;5073193;28;20238;-57
2023/01/06 02:32:05;;;;;;;1.67;1.20;;;;;;;;;;5072736;28;20296;-57
2023/01/06 02:34:40;;;;;;;3.60;1.37;;;;;;;;;;5074811;28;20333;-58
2023/01/06 02:37:12;;;;;;;5.80;1.60;;;;;;;;;;5078621;28;20232;-57
2023/01/06 02:39:48;;;;;;;6.47;2.10;;;;;;;;;;5074598;28;20226;-58
2023/01/06 02:42:19;;;;;;;3.43;1.13;;;;;;;;;;5078189;28;20245;-57
2023/01/06 02:44:49;;;;;;;2.00;1.40;;;;;;;;;;5076441;28;20727;-57
2023/01/06 02:47:20;;;;;;;3.53;1.07;;;;;;;;;;5079173;28;20230;-57
2023/01/06 02:49:49;;;;;;;5.73;1.83;;;;;;;;;;5079758;28;20256;-58
2023/01/06 02:52:20;;;;;;;1.93;1.30;;;;;;;;;;5071608;28;20239;-57
2023/01/06 02:54:52;;;;;;;2.60;1.40;;;;;;;;;;5080285;28;20303;-58
2023/01/06 02:57:21;;;;;;;1.67;1.17;;;;;;;;;;5074144;28;20249;-57
2023/01/06 02:59:52;;;;;;;3.53;1.60;;;;;;;;;;5080187;28;21928;-57
2023/01/06 03:02:20;;;;;;;2.77;1.30;;;;;;;;;;5081147;28;20249;-57
2023/01/06 03:04:48;;;;;;;5.73;1.53;;;;;;;;;;5076045;28;20330;-59
2023/01/06 03:07:15;;;;;;;3.47;1.40;;;;;;;;;;5078306;28;20322;-58
2023/01/06 03:09:42;;;;;;;6.27;1.60;;;;;;;;;;5083113;28;20252;-62
2023/01/06 03:12:18;;;;;;;3.90;1.43;;;;;;;;;;5093382;28;20234;-57
2023/01/06 03:14:47;;;;;;;4.13;1.60;;;;;;;;;;5083103;28;20226;-56
2023/01/06 03:17:14;;;;;;;3.17;1.80;;;;;;;;;;5087864;28;20287;-57
2023/01/06 03:19:43;;;;;;;6.57;1.70;;;;;;;;;;5073644;28;20370;-57
2023/01/06 03:22:09;;;;;;;4.17;1.57;;;;;;;;;;5081243;28;20241;-57
2023/01/06 03:24:36;;;;;;;3.30;1.97;;;;;;;;;;5074179;28;20314;-59
2023/01/06 03:27:04;;;;;;;1.80;1.67;;;;;;;;;;5079984;28;20237;-58
2023/01/06 03:29:30;;;;;;;1.60;1.17;;;;;;;;;;5077519;28;20306;-58
2023/01/06 03:32:00;;;;;;;2.90;1.50;;;;;;;;;;5084625;28;20324;-57
2023/01/06 03:34:34;;;;;;;3.77;1.20;;;;;;;;;;5078480;28;20745;-56
2023/01/06 03:37:06;;;;;;;4.20;1.60;;;;;;;;;;5079610;28;20288;-57
2023/01/06 03:39:35;;;;;;;10.93;2.50;;;;;;;;;;5077572;28;20238;-57
2023/01/06 03:44:53;;;;;;;1.20;1.10;;;;;;;;;;5081391;28;20282;-58
2023/01/06 03:47:24;;;;;;;3.53;1.27;;;;;;;;;;5079380;28;20716;-57
2023/01/06 03:49:53;;;;;;;3.33;1.50;;;;;;;;;;5080104;28;20275;-57
2023/01/06 03:52:24;;;;;;;4.27;1.10;;;;;;;;;;5078164;28;20720;-58
2023/01/06 03:54:54;;;;;;;2.13;1.30;;;;;;;;;;5077838;28;20231;-57
2023/01/06 03:57:24;;;;;;;2.50;1.23;;;;;;;;;;5075837;28;20234;-58
2023/01/06 03:59:53;;;;;;;2.93;1.43;;;;;;;;;;5080494;28;20226;-58
2023/01/06 04:02:21;;;;;;;4.07;1.20;;;;;;;;;;5077866;28;20240;-57
2023/01/06 04:05:00;;;;;;;3.60;1.37;;;;;;;;;;5079369;28;20223;-57
2023/01/06 04:07:28;;;;;;;3.50;1.30;;;;;;;;;;5078986;28;20621;-57
2023/01/06 04:09:55;;;;;;;1.37;1.27;;;;;;;;;;5081381;28;20281;-58
2023/01/06 04:15:12;;;;;;;2.47;1.13;;;;;;;;;;5065647;28;20272;-56
2023/01/06 04:17:39;;;;;;;1.53;1.43;;;;;;;;;;5074033;28;20707;-57
2023/01/06 04:20:06;;;;;;;3.97;1.47;;;;;;;;;;5077998;28;20773;-58
2023/01/06 04:22:34;;;;;;;3.13;1.67;;;;;;;;;;5072266;28;20243;-57
2023/01/06 04:25:01;;;;;;;4.50;1.30;;;;;;;;;;5070908;28;20418;-57
2023/01/06 04:27:28;;;;;;;4.93;1.50;;;;;;;;;;5074958;28;20258;-58
2023/01/06 04:29:55;;;;;;;2.90;1.40;;;;;;;;;;5074242;28;20230;-56
2023/01/06 04:32:21;;;;;;;5.60;1.57;;;;;;;;;;5070383;28;20679;-57
2023/01/06 04:34:48;;;;;;;3.93;1.50;;;;;;;;;;5075122;28;20230;-56
2023/01/06 04:37:14;;;;;;;3.50;1.50;;;;;;;;;;5080679;28;20970;-58
2023/01/06 04:39:42;;;;;;;2.87;1.47;;;;;;;;;;5084360;28;20303;-57
2023/01/06 04:42:09;;;;;;;2.03;1.23;;;;;;;;;;5082049;28;20949;-57
2023/01/06 04:44:36;;;;;;;4.37;1.17;;;;;;;;;;5080487;28;20246;-58
2023/01/06 04:47:02;;;;;;;1.53;1.27;;;;;;;;;;5080302;28;20895;-56
2023/01/06 04:49:29;;;;;;;2.53;1.30;;;;;;;;;;5070168;28;20304;-57
2023/01/06 04:51:55;;;;;;;1.50;1.40;;;;;;;;;;5079690;28;20255;-57
2023/01/06 04:54:22;;;;;;;4.17;1.73;;;;;;;;;;5070350;28;20238;-57
2023/01/06 04:56:50;;;;;;;1.93;1.50;;;;;;;;;;5080569;28;20257;-58
2023/01/06 04:59:17;;;;;;;2.83;1.60;;;;;;;;;;5074757;28;20317;-57
2023/01/06 05:01:43;;;;;;;4.47;1.77;;;;;;;;;;5074129;28;20238;-60
2023/01/06 05:04:10;;;;;;;2.50;1.70;;;;;;;;;;5076346;28;20735;-58
2023/01/06 05:06:38;;;;;;;2.53;1.90;;;;;;;;;;5077926;28;20233;-60
2023/01/06 05:09:05;;;;;;;2.00;1.43;;;;;;;;;;5076715;28;20242;-58
2023/01/06 05:11:31;;;;;;;5.90;1.40;;;;;;;;;;5075765;28;20451;-57
2023/01/06 05:13:59;;;;;;;3.33;1.80;;;;;;;;;;5081013;28;20227;-58
2023/01/06 05:16:27;;;;;;;2.23;1.40;;;;;;;;;;5076573;28;20329;-57
2023/01/06 05:18:54;;;;;;;5.77;1.50;;;;;;;;;;5071309;28;20224;-58
2023/01/06 05:21:22;;;;;;;6.80;1.80;;;;;;;;;;5082850;28;20311;-56
2023/01/06 05:23:49;;;;;;;5.17;1.80;;;;;;;;;;5073654;28;20330;-57
2023/01/06 05:26:16;;;;;;;3.83;1.70;;;;;;;;;;5076457;28;20230;-58
2023/01/06 05:28:43;;;;;;;5.13;1.83;;;;;;;;;;5085321;28;20227;-57
2023/01/06 05:31:11;;;;;;;5.70;1.53;;;;;;;;;;5080382;28;20318;-57
2023/01/06 05:33:38;;;;;;;3.70;1.50;;;;;;;;;;5084490;28;20237;-58
2023/01/06 05:36:06;;;;;;;5.50;2.10;;;;;;;;;;5085110;28;20320;-56
2023/01/06 05:38:33;;;;;;;7.83;2.10;;;;;;;;;;5092550;28;20468;-58
2023/01/06 05:40:59;;;;;;;4.80;1.97;;;;;;;;;;5071881;28;20247;-57
2023/01/06 05:43:26;;;;;;;2.53;1.73;;;;;;;;;;5078105;28;20245;-61
2023/01/06 05:45:53;;;;;;;7.17;2.23;;;;;;;;;;5077980;28;20651;-57
2023/01/06 05:48:23;;;;;;;4.47;1.90;;;;;;;;;;5079841;28;20230;-57
2023/01/06 05:50:50;;;;;;;3.77;2.40;;;;;;;;;;5081381;28;20810;-57
2023/01/06 05:53:17;;;;;;;4.77;1.87;;;;;;;;;;5077778;28;20292;-57
2023/01/06 05:55:43;;;;;;;2.80;1.80;;;;;;;;;;5074399;28;20239;-59
2023/01/06 05:58:10;;;;;;;5.23;2.10;;;;;;;;;;5078884;28;20318;-57
2023/01/06 06:00:36;;;;;;;3.27;2.00;;;;;;;;;;5076828;28;20230;-57
2023/01/06 06:03:03;;;;;;;3.73;1.67;;;;;;;;;;5070170;28;20901;-58
2023/01/06 06:05:31;;;;;;;3.63;2.30;;;;;;;;;;5068796;28;20231;-58
2023/01/06 06:07:58;;;;;;;8.83;2.20;;;;;;;;;;5078430;28;20662;-57
2023/01/06 06:10:25;;;;;;;4.53;2.00;;;;;;;;;;5078956;28;20582;-58
2023/01/06 06:12:51;;;;;;;4.23;1.90;;;;;;;;;;5076478;28;20724;-58
2023/01/06 06:15:19;;;;;;;2.80;2.47;;;;;;;;;;5082739;28;20316;-57
2023/01/06 06:17:45;;;;;;;3.80;1.97;;;;;;;;;;5078805;28;20796;-58
2023/01/06 06:20:12;;;;;;;3.77;1.93;;;;;;;;;;5074558;28;20233;-57
2023/01/06 06:22:40;;;;;;;6.27;2.27;;;;;;;;;;5077763;28;20659;-58
2023/01/06 06:25:06;;;;;;;5.13;2.47;;;;;;;;;;5076926;28;20257;-57
2023/01/06 06:27:33;;;;;;;4.47;2.50;;;;;;;;;;5076359;28;20234;-58
2023/01/06 06:30:00;;;;;;;5.13;2.30;;;;;;;;;;5074148;28;20318;-58
2023/01/06 06:32:29;;;;;;;3.37;2.40;;;;;;;;;;5080054;28;20318;-57
2023/01/06 06:34:56;;;;;;;3.67;3.13;;;;;;;;;;5075452;28;20233;-57
2023/01/06 06:37:22;;;;;;;4.43;2.97;;;;;;;;;;5063005;28;20236;-56
2023/01/06 06:39:50;;;;;;;10.10;3.07;;;;;;;;;;5072723;28;20223;-59
2023/01/06 06:42:17;;;;;;;3.87;2.70;;;;;;;;;;5065017;28;20231;-57
2023/01/06 06:44:43;;;;;;;4.73;2.90;;;;;;;;;;5070670;28;20681;-58
2023/01/06 06:47:10;;;;;;;4.70;2.30;;;;;;;;;;5084031;28;20696;-57
2023/01/06 06:49:36;;;;;;;5.70;3.03;;;;;;;;;;5082606;28;20313;-58
2023/01/06 06:52:03;;;;;;;4.87;2.43;;;;;;;;;;5076430;28;20227;-57
2023/01/06 06:54:30;;;;;;;5.13;3.67;;;;;;;;;;5081863;28;20608;-58
2023/01/06 06:56:58;;;;;;;4.83;2.97;;;;;;;;;;5074291;28;20723;-57
2023/01/06 06:59:24;;;;;;;5.47;3.60;;;;;;;;;;5085251;28;20223;-57
2023/01/06 07:01:51;;;;;;;15.20;3.13;;;;;;;;;;5075833;28;20713;-57
2023/01/06 07:04:18;;;;;;;7.13;3.27;;;;;;;;;;5085674;28;20287;-58
2023/01/06 07:06:44;;;;;;;3.77;3.30;;;;;;;;;;5080372;28;20234;-58
2023/01/06 07:09:11;;;;;;;9.87;3.77;;;;;;;;;;5080121;28;20278;-57
2023/01/06 07:11:37;;;;;;;5.80;3.17;;;;;;;;;;5078221;28;20738;-58
2023/01/06 07:14:05;;;;;;;4.40;3.37;;;;;;;;;;5075621;28;20634;-57
2023/01/06 07:16:32;;;;;;;7.47;3.43;;;;;;;;;;5080083;28;20252;-57
2023/01/06 07:18:59;;;;;;;6.40;3.63;;;;;;;;;;5076863;28;20285;-57
2023/01/06 07:21:25;;;;;;;10.30;4.30;;;;;;;;;;5079590;28;20260;-58
2023/01/06 07:23:52;;;;;;;6.87;4.63;;;;;;;;;;5077377;28;20250;-57
2023/01/06 07:26:18;;;;;;;5.00;3.90;;;;;;;;;;5072500;28;20226;-56
2023/01/06 07:28:45;;;;;;;5.70;4.07;;;;;;;;;;5078528;28;20246;-61
2023/01/06 07:31:13;;;;;;;7.83;4.43;;;;;;;;;;5074928;28;20233;-57
2023/01/06 07:33:40;;;;;;;4.63;4.03;;;;;;;;;;5075347;28;20245;-57
2023/01/06 07:36:07;;;;;;;8.33;4.63;;;;;;;;;;5080303;28;20989;-57
2023/01/06 07:38:34;;;;;;;6.80;5.00;;;;;;;;;;5074217;28;20231;-57
2023/01/06 07:41:01;;;;;;;7.50;4.37;;;;;;;;;;5076739;28;20231;-58
2023/01/06 07:43:27;;;;;;;5.40;4.17;;;;;;;;;;5079476;28;20276;-58
2023/01/06 07:45:54;;;;;;;5.43;4.67;;;;;;;;;;5077659;28;20242;-57
2023/01/06 07:48:22;;;;;;;6.77;6.07;;;;;;;;;;5077665;28;20254;-57
2023/01/06 07:50:48;;;;;;;5.67;5.00;;;;;;;;;;5083821;28;20238;-59
2023/01/06 07:53:15;;;;;;;8.93;5.50;;;;;;;;;;5082193;28;20292;-59
2023/01/06 07:55:41;;;;;;;7.33;6.17;;;;;;;;;;5083947;28;20729;-58
2023/01/06 07:58:08;;;;;;;11.07;6.33;;;;;;;;;;5091115;28;20291;-57
2023/01/06 08:00:35;;;;;;;11.23;6.07;;;;;;;;;;5083792;28;20306;-57
2023/01/06 08:03:03;;;;;;;7.47;5.67;;;;;;;;;;5074018;28;20728;-57
2023/01/06 08:05:31;;;;;;;9.50;5.57;;;;;;;;;;5080525;28;20223;-57
2023/01/06 08:07:57;;;;;;;6.53;5.63;;;;;;;;;;5076539;28;20242;-58
2023/01/06 08:10:24;;;;;;;9.10;6.33;;;;;;;;;;5080920;28;20234;-59
2023/01/06 08:12:50;;;;;;;11.73;6.27;;;;;;;;;;5087541;28;20322;-62
2023/01/06 08:15:17;;;;;;;9.37;6.10;;;;;;;;;;5093974;28;20242;-58
2023/01/06 08:17:43;;;;;;;10.93;6.20;;;;;;;;;;5089808;28;20234;-55
2023/01/06 08:20:10;;;;;;;8.20;6.50;;;;;;;;;;5077045;28;20258;-57
2023/01/06 08:22:38;;;;;;;15.50;9.10;;;;;;;;;;5079121;28;20291;-58
2023/01/06 08:25:05;;;;;;;11.23;6.60;;;;;;;;;;5084156;28;20234;-58
2023/01/06 08:27:32;;;;;;;8.77;6.73;;;;;;;;;;5078418;28;20231;-57
2023/01/06 08:29:58;;;;;;;10.03;6.37;;;;;;;;;;5076151;28;20989;-59
2023/01/06 08:32:25;;;;;;;9.87;6.77;;;;;;;;;;5077341;28;20258;-57
2023/01/06 08:34:51;;;;;;;8.50;6.40;;;;;;;;;;5083804;28;20237;-58
2023/01/06 08:37:18;;;;;;;12.33;6.83;;;;;;;;;;5070117;28;20242;-59
2023/01/06 08:39:46;;;;;;;7.33;6.23;;;;;;;;;;5079092;28;20235;-57
2023/01/06 08:42:12;;;;;;;14.03;6.80;;;;;;;;;;5078835;28;20231;-57
2023/01/06 08:44:39;;;;;;;8.47;7.60;;;;;;;;;;5076135;28;20235;-56
2023/01/06 08:47:05;;;;;;;15.27;6.90;;;;;;;;;;5060608;28;20698;-58
2023/01/06 08:49:32;;;;;;;10.63;7.20;;;;;;;;;;5085441;28;20280;-58
2023/01/06 08:51:58;;;;;;;9.73;6.37;;;;;;;;;;5086019;28;20242;-58
2023/01/06 08:54:25;;;;;;;10.83;8.50;;;;;;;;;;5078620;28;20756;-57
2023/01/06 08:56:53;;;;;;;13.20;8.60;;;;;;;;;;5074012;28;20242;-57
2023/01/06 08:59:20;;;;;;;9.80;7.17;;;;;;;;;;5066645;28;20289;-57
2023/01/06 09:01:46;;;;;;;10.27;8.00;;;;;;;;;;5070144;28;20268;-58
2023/01/06 09:04:13;;;;;;;13.60;8.53;;;;;;;;;;5070950;28;20238;-57
2023/01/06 09:06:41;;;;;;;13.90;9.43;;;;;;;;;;5074445;28;20283;-56
2023/01/06 09:09:10;;;;;;;14.93;7.13;;;;;;;;;;5072806;28;20231;-57
2023/01/06 09:11:36;;;;;;;15.90;8.57;;;;;;;;;;5072892;28;20230;-58
2023/01/06 09:14:04;;;;;;;11.03;7.40;;;;;;;;;;5076654;28;20795;-57
2023/01/06 09:16:31;;;;;;;8.60;7.80;;;;;;;;;;5080028;28;20234;-57
2023/01/06 09:18:57;;;;;;;12.57;8.23;;;;;;;;;;5081547;28;20288;-57
2023/01/06 09:21:24;;;;;;;14.33;9.50;;;;;;;;;;5083471;28;20246;-59
2023/01/06 09:23:50;;;;;;;14.87;9.07;;;;;;;;;;5080166;28;20337;-58
2023/01/06 09:26:17;;;;;;;11.33;8.73;;;;;;;;;;5073907;28;20233;-56
2023/01/06 09:28:44;;;;;;;11.73;8.87;;;;;;;;;;5075268;28;20870;-57
2023/01/06 09:31:12;;;;;;;16.17;9.50;;;;;;;;;;5055819;28;20238;-57
2023/01/06 09:33:39;;;;;;;15.13;9.13;;;;;;;;;;5080363;28;20234;-57
2023/01/06 09:36:06;;;;;;;12.43;8.67;;;;;;;;;;5086693;28;25215;-60
2023/01/06 09:38:32;;;;;;;12.47;9.33;;;;;;;;;;5086802;28;20241;-58
2023/01/06 09:41:26;;;;;;;17.00;9.30;;;;;;;;;;5081142;28;20264;-58
2023/01/06 09:43:54;;;;;;;11.37;8.63;;;;;;;;;;5057076;28;20262;-57
2023/01/06 09:46:24;;;;;;;12.97;8.40;;;;;;;;;;5083467;28;20329;-57
2023/01/06 09:48:55;;;;;;;12.83;9.30;;;;;;;;;;5072886;28;20234;-57
2023/01/06 09:51:23;;;;;;;14.90;9.67;;;;;;;;;;5077536;28;20233;-58
2023/01/06 09:53:51;;;;;;;11.53;10.00;;;;;;;;;;5078743;28;20328;-58
2023/01/06 09:56:19;;;;;;;11.67;8.67;;;;;;;;;;5081596;28;20245;-59
2023/01/06 09:58:48;;;;;;;9.57;8.30;;;;;;;;;;5081490;28;20233;-64
2023/01/06 10:01:16;;;;;;;12.13;9.07;;;;;;;;;;5065673;28;20255;-58
2023/01/06 10:03:45;;;;;;;12.20;8.20;;;;;;;;;;5068730;28;20241;-58
2023/01/06 10:06:20;;;;;;;11.27;9.00;;;;;;;;;;5081361;28;20250;-58
2023/01/06 10:08:50;;;;;;;16.23;9.23;;;;;;;;;;5070348;28;20604;-57
2023/01/06 10:11:23;;;;;;;11.50;9.07;;;;;;;;;;5075261;28;20227;-58
2023/01/06 10:13:56;;;;;;;11.17;8.77;;;;;;;;;;5079235;28;20287;-57
2023/01/06 10:16:28;;;;;;;11.13;8.33;;;;;;;;;;5081261;28;20249;-58
2023/01/06 10:18:59;;;;;;;10.73;9.17;;;;;;;;;;5073661;28;20226;-57
2023/01/06 10:21:31;;;;;;;14.40;7.83;;;;;;;;;;5076821;28;20227;-57
2023/01/06 10:24:14;;;;;;;9.20;7.27;;;;;;;;;;5076692;28;20234;-59
2023/01/06 10:26:42;;;;;;;12.37;8.77;;;;;;;;;;5071659;28;20241;-58
2023/01/06 10:29:11;;;;;;;8.33;7.40;;;;;;;;;;5077971;28;20295;-58
2023/01/06 10:31:39;;;;;;;13.10;10.10;;;;;;;;;;5080236;28;20256;-57
2023/01/06 10:34:14;;;;;;;8.97;7.77;;;;;;;;;;5076960;28;20250;-57
2023/01/06 10:36:42;;;;;;;14.30;9.23;;;;;;;;;;5062114;28;20227;-57
2023/01/06 10:39:13;;;;;;;9.03;7.30;;;;;;;;;;5069452;28;20287;-56
2023/01/06 10:41:43;;;;;;;10.53;7.97;;;;;;;;;;5081261;28;20226;-58
2023/01/06 10:44:10;;;;;;;11.63;8.67;;;;;;;;;;5070015;28;20326;-57
2023/01/06 10:46:37;;;;;;;10.03;7.43;;;;;;;;;;5078402;28;20230;-58
2023/01/06 10:49:04;;;;;;;9.53;7.90;;;;;;;;;;5071909;28;20228;-59
2023/01/06 10:51:37;;;;;;;15.87;7.70;;;;;;;;;;5077392;28;20223;-58
2023/01/06 10:54:08;;;;;;;10.93;7.90;;;;;;;;;;5081574;28;20231;-58
2023/01/06 10:56:35;;;;;;;12.47;8.53;;;;;;;;;;5079887;28;20775;-57
2023/01/06 10:59:05;;;;;;;10.37;8.23;;;;;;;;;;5075416;28;20297;-58
2023/01/06 11:01:32;;;;;;;8.30;7.37;;;;;;;;;;5076864;28;20223;-58
2023/01/06 11:04:08;;;;;;;13.37;8.77;;;;;;;;;;5075801;28;20238;-57
2023/01/06 11:06:38;;;;;;;12.23;7.63;;;;;;;;;;5072474;28;20226;-58
2023/01/06 11:09:09;;;;;;;9.97;7.97;;;;;;;;;;5080645;28;20807;-58
2023/01/06 11:11:45;;;;;;;9.57;7.63;;;;;;;;;;5073682;28;20880;-59
2023/01/06 11:14:15;;;;;;;13.07;7.70;;;;;;;;;;5075938;28;20325;-58
2023/01/06 11:16:41;;;;;;;9.93;8.00;;;;;;;;;;5080464;28;20237;-58
2023/01/06 11:19:20;;;;;;;11.83;8.37;;;;;;;;;;5082194;28;20306;-57
2023/01/06 11:21:48;;;;;;;12.57;8.73;;;;;;;;;;5078126;28;20230;-58
2023/01/06 11:24:16;;;;;;;13.43;11.60;;;;;;;;;;5085651;28;20239;-59
2023/01/06 11:26:50;;;;;;;12.43;7.90;;;;;;;;;;5073270;28;20226;-58
2023/01/06 11:29:23;;;;;;;9.17;8.23;;;;;;;;;;5081868;28;21231;-60
2023/01/06 11:31:50;;;;;;;9.23;7.17;;;;;;;;;;5076871;28;20254;-58
2023/01/06 11:34:20;;;;;;;11.53;8.73;;;;;;;;;;5079546;28;20242;-61
2023/01/06 11:36:48;;;;;;;10.27;7.37;;;;;;;;;;5077998;28;20234;-58
2023/01/06 11:39:16;;;;;;;10.67;8.33;;;;;;;;;;5083948;28;20649;-58
2023/01/06 11:41:45;;;;;;;9.03;7.20;;;;;;;;;;5084019;28;20227;-58
2023/01/06 11:44:14;;;;;;;8.27;6.97;;;;;;;;;;5078391;28;20778;-57
2023/01/06 11:46:47;;;;;;;9.77;7.87;;;;;;;;;;5081986;28;20222;-56
2023/01/06 11:49:15;;;;;;;11.17;8.57;;;;;;;;;;5084923;28;20218;-57
2023/01/06 11:51:46;;;;;;;11.50;8.40;;;;;;;;;;5086462;28;20250;-57
2023/01/06 11:54:23;;;;;;;8.70;7.00;;;;;;;;;;5076138;28;20231;-57
2023/01/06 11:56:56;;;;;;;10.53;7.10;;;;;;;;;;5088213;28;20234;-57
2023/01/06 11:59:24;;;;;;;10.37;8.43;;;;;;;;;;5090876;28;20223;-56
2023/01/06 12:01:52;;;;;;;9.23;7.83;;;;;;;;;;5092295;28;20238;-56
2023/01/06 12:04:24;;;;;;;8.60;7.10;;;;;;;;;;5084719;28;20282;-57
2023/01/06 12:06:52;;;;;;;10.83;6.97;;;;;;;;;;5087067;28;20261;-56
2023/01/06 12:09:22;;;;;;;7.73;6.63;;;;;;;;;;5077963;28;20230;-58
2023/01/06 12:11:51;;;;;;;8.50;6.90;;;;;;;;;;5074278;28;20233;-58
2023/01/06 12:14:19;;;;;;;9.57;6.40;;;;;;;;;;5081151;28;20318;-56
2023/01/06 12:16:58;;;;;;;8.43;6.43;;;;;;;;;;5084066;28;20313;-57
2023/01/06 12:19:29;;;;;;;9.03;5.80;;;;;;;;;;5080680;28;20241;-57
2023/01/06 12:21:55;;;;;;;7.57;5.37;;;;;;;;;;5080397;28;20258;-57
2023/01/06 12:24:22;;;;;;;6.27;5.63;;;;;;;;;;5075080;28;20231;-56
2023/01/06 12:26:50;;;;;;;6.67;5.07;;;;;;;;;;5083863;28;20249;-57
2023/01/06 12:29:19;;;;;;;5.73;5.20;;;;;;;;;;5076390;28;20314;-59
2023/01/06 12:31:47;;;;;;;5.93;4.90;;;;;;;;;;5076449;28;20258;-56
2023/01/06 12:34:17;;;;;;;6.43;5.63;;;;;;;;;;5075187;28;20230;-57
2023/01/06 12:36:47;;;;;;;6.60;5.80;;;;;;;;;;5076761;28;20677;-56
2023/01/06 12:39:22;;;;;;;9.87;5.93;;;;;;;;;;5082483;28;20314;-57
2023/01/06 12:41:52;;;;;;;9.40;6.07;;;;;;;;;;5076396;28;20305;-57
2023/01/06 12:44:23;;;;;;;5.93;5.10;;;;;;;;;;5070979;28;20227;-57
2023/01/06 12:46:55;;;;;;;8.93;5.10;;;;;;;;;;5077203;28;20230;-56
2023/01/06 12:49:28;;;;;;;7.57;5.10;;;;;;;;;;5072262;28;20721;-58
2023/01/06 12:51:56;;;;;;;7.80;4.77;;;;;;;;;;5070516;28;20226;-57
2023/01/06 12:54:25;;;;;;;5.17;4.60;;;;;;;;;;5074491;28;20610;-56
2023/01/06 12:56:59;;;;;;;7.37;4.53;;;;;;;;;;5083068;28;20230;-56
2023/01/06 12:59:29;;;;;;;5.57;4.53;;;;;;;;;;5085788;28;20230;-57
2023/01/06 13:01:57;;;;;;;5.83;4.20;;;;;;;;;;5067051;28;20326;-57
2023/01/06 13:04:44;;;;;;;4.27;3.87;;;;;;;;;;5080490;28;20241;-58
2023/01/06 13:07:14;;;;;;;4.73;3.30;;;;;;;;;;5089048;28;20665;-56
2023/01/06 13:09:47;;;;;;;9.60;3.67;;;;;;;;;;5087351;28;20720;-56
2023/01/06 13:12:26;;;;;;;3.43;2.30;;;;;;;;;;5087190;28;20223;-56
2023/01/06 13:14:57;;;;;;;7.23;2.70;;;;;;;;;;5084455;28;20248;-57
2023/01/06 13:17:28;;;;;;;2.17;1.97;;;;;;;;;;5085619;28;20769;-56
2023/01/06 13:19:56;;;;;;;3.10;2.50;;;;;;;;;;5087010;28;20302;-57
2023/01/06 13:22:25;;;;;;;2.30;2.10;;;;;;;;;;5103686;28;20230;-57
2023/01/06 13:25:13;;;;;;;2.17;1.80;;;;;;;;;;5100227;28;20813;-57
2023/01/06 13:27:47;;;;;;;2.53;1.90;;;;;;;;;;5053632;28;20683;-56
2023/01/06 13:30:22;;;;;;;3.83;2.33;;;;;;;;;;5082178;28;20281;-57
2023/01/06 13:32:57;;;;;;;1.77;1.67;;;;;;;;;;5080981;28;20236;-56
2023/01/06 13:35:36;;;;;;;5.30;2.47;;;;;;;;;;5083918;28;20242;-56
2023/01/06 13:38:06;;;;;;;3.00;1.73;;;;;;;;;;5080368;28;20322;-55
2023/01/06 13:40:36;;;;;;;3.13;1.50;;;;;;;;;;5091191;28;20253;-57
2023/01/06 13:43:06;;;;;;;3.23;2.00;;;;;;;;;;5083114;28;20319;-55
2023/01/06 13:45:33;;;;;;;2.63;2.07;;;;;;;;;;5089153;28;20294;-56
2023/01/06 13:48:06;;;;;;;2.90;2.00;;;;;;;;;;5085192;28;20501;-56
2023/01/06 13:50:32;;;;;;;3.37;1.53;;;;;;;;;;5083301;28;20260;-56
2023/01/06 13:52:59;;;;;;;2.63;1.67;;;;;;;;;;5079171;28;20238;-62
2023/01/06 13:55:28;;;;;;;1.50;1.40;;;;;;;;;;5085298;28;20874;-57
2023/01/06 13:57:55;;;;;;;1.40;1.30;;;;;;;;;;5090218;28;20229;-56
2023/01/06 14:00:24;;;;;;;3.67;1.50;;;;;;;;;;5084580;28;20241;-56
2023/01/06 14:03:17;;;;;;;1.87;1.27;;;;;;;;;;5082027;28;20245;-57
2023/01/06 14:05:51;;;;;;;2.70;1.10;;;;;;;;;;5085227;28;20321;-57
2023/01/06 14:08:19;;;;;;;3.80;1.40;;;;;;;;;;5086238;28;20230;-56
2023/01/06 14:10:47;;;;;;;1.70;1.27;;;;;;;;;;5088784;28;20232;-55
2023/01/06 14:13:19;;;;;;;3.93;1.20;;;;;;;;;;5089497;28;20234;-60
2023/01/06 14:15:55;;;;;;;1.37;1.10;;;;;;;;;;5089320;28;20235;-56
2023/01/06 14:18:31;;;;;;;1.17;1.17;;;;;;;;;;5086216;28;20237;-56
2023/01/06 14:21:03;;;;;;;1.80;1.17;;;;;;;;;;5091422;28;20253;-59
2023/01/06 14:23:29;;;;;;;1.40;1.17;;;;;;;;;;5087255;28;20239;-55
2023/01/06 14:25:56;;;;;;;1.03;0.90;;;;;;;;;;5083250;28;20223;-56
2023/01/06 14:28:27;;;;;;;1.30;0.97;;;;;;;;;;5080490;28;20876;-56
2023/01/06 14:31:08;;;;;;;1.17;0.97;;;;;;;;;;5083528;28;20230;-58
2023/01/06 14:33:37;;;;;;;2.27;1.20;;;;;;;;;;5078232;28;20609;-56
2023/01/06 14:36:06;;;;;;;1.03;1.03;;;;;;;;;;5081804;28;20269;-55
2023/01/06 14:38:36;;;;;;;2.03;1.33;;;;;;;;;;5073707;28;20225;-56
2023/01/06 14:41:04;;;;;;;1.07;1.07;;;;;;;;;;5075727;28;20230;-55
2023/01/06 14:43:45;;;;;;;0.97;0.97;;;;;;;;;;5075482;28;20258;-56
2023/01/06 14:46:16;;;;;;;1.37;1.10;;;;;;;;;;5076695;28;20335;-56
2023/01/06 14:48:46;;;;;;;2.40;1.13;;;;;;;;;;5073510;28;20234;-55
2023/01/06 14:51:15;;;;;;;0.97;0.83;;;;;;;;;;5077207;28;21090;-55
2023/01/06 14:53:43;;;;;;;9.43;7.07;;;;;;;;;;5082459;28;20634;-56
2023/01/06 14:56:16;;;;;;;1.07;1.03;;;;;;;;;;5076811;28;20258;-55
2023/01/06 14:58:42;;;;;;;1.63;1.20;;;;;;;;;;5078854;28;20318;-56
2023/01/06 15:01:20;;;;;;;1.40;1.07;;;;;;;;;;5080114;28;20760;-56